Time;durP1;ratioP1;P1;durP2;ratioP2;P2;SDS_P1;SDS_P2;PMS_P1;PMS_P2;Temp;Humidity;BMP_temperature;BMP_pressure;BME280_temperature;BME280_humidity;BME280_pressure;Samples;Min_cycle;Max_cycle;Signal;HPM_P1;HPM_P2
2022/04/03 00:01:44;;;;;;;4.07;2.28;;;-0.70;99.90;;;;;;4912324;29;20446;-76
2022/04/03 00:04:09;;;;;;;4.93;2.05;;;-0.80;99.90;;;;;;4903099;29;20143;-76
2022/04/03 00:06:35;;;;;;;4.28;2.22;;;-0.80;99.90;;;;;;4896123;29;20044;-76
2022/04/03 00:09:02;;;;;;;5.82;2.13;;;-0.80;99.90;;;;;;4895936;29;20083;-76
2022/04/03 00:11:28;;;;;;;5.13;2.00;;;-0.80;99.90;;;;;;4902387;29;20049;-76
2022/04/03 00:13:55;;;;;;;4.30;2.10;;;-0.80;99.90;;;;;;4901572;29;20058;-75
2022/04/03 00:16:21;;;;;;;3.92;2.00;;;-0.90;99.90;;;;;;4877859;29;20067;-77
2022/04/03 00:18:47;;;;;;;3.55;1.98;;;-0.90;99.90;;;;;;4877406;29;20052;-76
2022/04/03 00:21:13;;;;;;;4.82;2.00;;;-0.90;99.90;;;;;;4878504;29;20045;-76
2022/04/03 00:23:39;;;;;;;6.47;2.20;;;-0.20;99.90;;;;;;4896258;29;20115;-75
2022/04/03 00:26:05;;;;;;;;;;;-1.00;99.90;;;;;;4896434;29;20105;-76
2022/04/03 00:28:31;;;;;;;4.72;2.05;;;-1.10;99.90;;;;;;4895058;29;19931;-79
2022/04/03 00:30:57;;;;;;;6.22;2.38;;;-0.30;99.90;;;;;;4908429;29;20059;-76
2022/04/03 00:33:23;;;;;;;6.28;2.13;;;-0.80;99.90;;;;;;4893192;29;20139;-75
2022/04/03 00:35:50;;;;;;;6.47;2.50;;;-1.20;99.90;;;;;;4889587;29;20049;-76
2022/04/03 00:38:16;;;;;;;5.68;2.33;;;-1.20;99.90;;;;;;4896185;29;20060;-77
2022/04/03 00:40:47;;;;;;;4.90;2.30;;;-1.20;99.90;;;;;;4892872;29;20060;-81
2022/04/03 00:43:13;;;;;;;5.05;2.47;;;-1.20;99.90;;;;;;4892009;29;20056;-75
2022/04/03 00:45:45;;;;;;;3.45;2.03;;;-1.20;99.90;;;;;;4893554;29;20558;-76
2022/04/03 00:48:11;;;;;;;4.82;2.10;;;-1.20;99.90;;;;;;4893594;29;20067;-76
2022/04/03 00:50:37;;;;;;;6.47;2.50;;;-1.20;99.90;;;;;;4892393;29;20163;-75
2022/04/03 00:53:03;;;;;;;;;;;-1.20;99.90;;;;;;4892972;29;20076;-77
2022/04/03 00:55:28;;;;;;;5.75;2.58;;;-0.20;99.90;;;;;;4908872;29;19927;-76
2022/04/03 00:57:55;;;;;;;7.25;2.63;;;-0.30;99.90;;;;;;4891620;29;20364;-77
2022/04/03 01:00:21;;;;;;;7.05;2.80;;;-1.30;99.90;;;;;;4911227;29;20123;-75
2022/04/03 01:02:47;;;;;;;5.38;2.35;;;-1.30;99.90;;;;;;4892965;29;20581;-76
2022/04/03 01:05:12;;;;;;;5.30;2.15;;;-1.30;99.90;;;;;;4880335;29;20056;-76
2022/04/03 01:07:38;;;;;;;4.63;2.35;;;-1.30;99.90;;;;;;4911503;29;20151;-75
2022/04/03 01:10:04;;;;;;;7.10;3.05;;;-1.30;99.90;;;;;;4879985;29;20044;-76
2022/04/03 01:12:30;;;;;;;4.45;2.25;;;-1.30;99.90;;;;;;4879347;29;20483;-75
2022/04/03 01:14:55;;;;;;;8.60;2.35;;;-1.30;99.90;;;;;;4911285;29;20087;-75
2022/04/03 01:17:21;;;;;;;4.70;2.40;;;-1.00;99.90;;;;;;4896462;29;20055;-76
2022/04/03 01:19:47;;;;;;;5.90;2.40;;;-1.30;99.90;;;;;;4910297;29;20083;-81
2022/04/03 01:22:12;;;;;;;8.63;2.63;;;-1.30;99.90;;;;;;4902931;29;20045;-75
2022/04/03 01:24:43;;;;;;;3.72;2.42;;;-1.30;99.90;;;;;;4892852;29;20049;-77
2022/04/03 01:27:09;;;;;;;4.85;2.75;;;-1.20;99.90;;;;;;4891331;29;20055;-75
2022/04/03 01:29:34;;;;;;;5.80;2.53;;;-1.20;99.90;;;;;;4896441;29;20041;-75
2022/04/03 01:32:00;;;;;;;4.93;2.17;;;-0.50;99.90;;;;;;4897023;29;20134;-75
2022/04/03 01:34:26;;;;;;;4.00;2.22;;;-1.30;99.90;;;;;;4883925;29;20059;-75
2022/04/03 01:36:51;;;;;;;3.90;2.33;;;-0.30;99.90;;;;;;4914693;29;20058;-78
2022/04/03 01:39:17;;;;;;;5.65;2.40;;;-1.30;99.90;;;;;;4898208;29;20056;-77
2022/04/03 01:41:43;;;;;;;6.30;2.70;;;-1.40;99.90;;;;;;4880094;29;20471;-75
2022/04/03 01:44:09;;;;;;;;;;;-1.40;99.90;;;;;;4881974;29;20060;-75
2022/04/03 01:46:39;;;;;;;4.70;2.40;;;-1.40;99.90;;;;;;4896622;29;20015;-75
2022/04/03 01:49:06;;;;;;;7.47;2.33;;;-1.50;99.90;;;;;;4895273;29;20096;-75
2022/04/03 01:51:32;;;;;;;6.50;2.15;;;-1.50;99.90;;;;;;4880836;29;20641;-75
2022/04/03 01:54:02;;;;;;;7.38;2.42;;;-1.60;99.90;;;;;;4895658;29;20722;-76
2022/04/03 01:56:27;;;;;;;4.55;2.40;;;-1.60;99.90;;;;;;4898172;29;20147;-75
2022/04/03 01:58:53;;;;;;;4.85;2.53;;;-1.60;99.90;;;;;;4913957;29;20144;-76
2022/04/03 02:01:19;;;;;;;4.72;2.42;;;-1.70;99.90;;;;;;4896145;29;20139;-76
2022/04/03 02:03:46;;;;;;;4.93;2.78;;;-1.70;99.90;;;;;;4911888;29;20624;-76
2022/04/03 02:06:13;;;;;;;5.90;2.80;;;-1.70;99.90;;;;;;4888430;29;20051;-75
2022/04/03 02:08:39;;;;;;;5.78;2.85;;;-1.70;99.90;;;;;;4907881;29;20506;-76
2022/04/03 02:11:05;;;;;;;8.95;2.67;;;-1.00;99.90;;;;;;4914278;29;20056;-75
2022/04/03 02:13:31;;;;;;;8.15;2.60;;;-1.70;99.90;;;;;;4897903;29;20079;-78
2022/04/03 02:15:56;;;;;;;6.35;2.72;;;-1.80;99.90;;;;;;4914391;29;20040;-78
2022/04/03 02:18:22;;;;;;;6.72;2.67;;;-1.80;99.90;;;;;;4914703;29;20422;-76
2022/04/03 02:20:48;;;;;;;5.93;2.63;;;-1.80;99.90;;;;;;4898618;29;20060;-81
2022/04/03 02:23:13;;;;;;;4.88;2.42;;;-1.80;99.90;;;;;;4914077;29;20078;-76
2022/04/03 02:25:39;;;;;;;5.95;2.75;;;-1.80;99.90;;;;;;4912108;29;20478;-75
2022/04/03 02:28:05;;;;;;;4.70;2.85;;;-0.60;99.90;;;;;;4880336;29;20124;-77
2022/04/03 02:30:31;;;;;;;5.65;2.55;;;-1.80;99.90;;;;;;4900744;29;20056;-76
2022/04/03 02:32:57;;;;;;;7.53;3.00;;;-1.80;99.90;;;;;;4894785;29;20562;-75
2022/04/03 02:35:23;;;;;;;5.22;2.90;;;-0.70;99.90;;;;;;4879702;29;20049;-76
2022/04/03 02:37:49;;;;;;;;;;;-1.60;99.90;;;;;;4895313;29;20064;-80
2022/04/03 02:40:17;;;;;;;6.03;2.88;;;-1.70;99.90;;;;;;4895109;29;19950;-76
2022/04/03 02:42:44;;;;;;;5.40;2.55;;;-1.60;99.90;;;;;;4880560;29;20048;-76
2022/04/03 02:45:10;;;;;;;4.70;2.50;;;-1.60;99.90;;;;;;4913932;29;20317;-75
2022/04/03 02:47:37;;;;;;;5.28;2.38;;;-1.60;99.90;;;;;;4913750;29;20398;-76
2022/04/03 02:50:05;;;;;;;6.50;3.08;;;-1.70;99.90;;;;;;4912847;29;20053;-75
2022/04/03 02:52:30;;;;;;;7.05;3.50;;;-1.70;99.90;;;;;;4907163;29;20087;-75
2022/04/03 02:54:57;;;;;;;7.28;3.00;;;-1.80;99.90;;;;;;4913479;29;20087;-76
2022/04/03 02:57:22;;;;;;;;;;;-1.80;99.90;;;;;;4913048;29;20084;-75
2022/04/03 02:59:48;;;;;;;5.80;3.00;;;-1.80;99.90;;;;;;4914045;29;20008;-75
2022/04/03 03:02:14;;;;;;;6.10;2.90;;;-1.80;99.90;;;;;;4897616;29;20048;-75
2022/04/03 03:04:40;;;;;;;5.20;2.65;;;-1.60;99.90;;;;;;4913481;29;20070;-75
2022/04/03 03:07:07;;;;;;;6.85;2.63;;;-1.90;99.90;;;;;;4912648;29;20098;-77
2022/04/03 03:09:34;;;;;;;4.30;2.55;;;-1.90;99.90;;;;;;4913644;29;20052;-76
2022/04/03 03:12:00;;;;;;;;;;;-2.00;99.90;;;;;;4912381;29;20055;-75
2022/04/03 03:14:29;;;;;;;9.30;2.83;;;-2.00;99.90;;;;;;4901092;29;19931;-76
2022/04/03 03:16:55;;;;;;;7.32;3.10;;;-2.00;99.90;;;;;;4878797;29;20455;-76
2022/04/03 03:19:21;;;;;;;9.30;3.40;;;-2.00;99.90;;;;;;4878914;29;20053;-76
2022/04/03 03:21:47;;;;;;;;;;;-2.00;99.90;;;;;;4895409;29;20155;-77
2022/04/03 03:24:13;;;;;;;5.75;3.00;;;-2.00;99.90;;;;;;4894303;29;20017;-78
2022/04/03 03:26:40;;;;;;;3.90;2.50;;;-2.00;99.90;;;;;;4863270;29;20052;-77
2022/04/03 03:29:05;;;;;;;5.13;2.78;;;-2.10;99.90;;;;;;4909246;29;20064;-75
2022/04/03 03:31:31;;;;;;;7.60;2.70;;;-1.90;99.90;;;;;;4897916;29;20490;-75
2022/04/03 03:33:57;;;;;;;5.72;2.90;;;-2.10;99.90;;;;;;4893812;29;20052;-76
2022/04/03 03:36:23;;;;;;;7.97;3.30;;;-2.10;99.90;;;;;;4878433;29;20131;-76
2022/04/03 03:38:49;;;;;;;5.30;2.60;;;-2.00;99.90;;;;;;4908063;29;20063;-78
2022/04/03 03:41:15;;;;;;;3.78;2.42;;;-2.00;99.90;;;;;;4897053;29;20163;-77
2022/04/03 03:43:41;;;;;;;6.03;2.50;;;-1.90;99.90;;;;;;4912037;29;20058;-76
2022/04/03 03:46:08;;;;;;;7.88;2.80;;;-1.90;99.90;;;;;;4912699;29;20102;-76
2022/04/03 03:48:35;;;;;;;6.30;2.80;;;-1.80;99.90;;;;;;4912735;29;20052;-76
2022/04/03 03:51:01;;;;;;;5.40;2.80;;;-1.70;99.90;;;;;;4895282;29;20066;-76
2022/04/03 03:53:26;;;;;;;5.18;2.60;;;-1.70;99.90;;;;;;4897327;29;20091;-75
2022/04/03 03:55:52;;;;;;;5.57;2.60;;;-1.70;99.90;;;;;;4912990;29;20087;-76
2022/04/03 03:58:18;;;;;;;9.07;3.10;;;-1.70;99.90;;;;;;4865676;29;20060;-75
2022/04/03 04:00:44;;;;;;;6.18;2.72;;;-1.70;99.90;;;;;;4912906;29;20749;-76
2022/04/03 04:03:10;;;;;;;5.47;3.03;;;-1.70;99.90;;;;;;4896548;29;20040;-76
2022/04/03 04:05:35;;;;;;;7.60;2.92;;;-1.70;99.90;;;;;;4896591;29;20111;-75
2022/04/03 04:08:01;;;;;;;6.63;2.85;;;-1.60;99.90;;;;;;4912145;29;20091;-76
2022/04/03 04:10:27;;;;;;;7.50;3.03;;;-1.50;99.90;;;;;;4897182;29;20090;-76
2022/04/03 04:12:53;;;;;;;5.63;3.10;;;-1.40;99.90;;;;;;4895747;29;20052;-76
2022/04/03 04:15:19;;;;;;;7.63;3.08;;;-1.40;99.90;;;;;;4896602;29;20135;-76
2022/04/03 04:17:46;;;;;;;6.47;2.90;;;-1.30;99.90;;;;;;4881488;29;20060;-77
2022/04/03 04:20:17;;;;;;;9.45;3.28;;;-1.30;99.90;;;;;;4911769;29;20111;-78
2022/04/03 04:22:48;;;;;;;7.75;2.85;;;-1.30;99.90;;;;;;4908619;29;20490;-77
2022/04/03 04:25:14;;;;;;;6.82;3.03;;;-1.20;99.90;;;;;;4893029;29;20833;-76
2022/04/03 04:27:41;;;;;;;7.22;3.40;;;-1.20;99.90;;;;;;4892462;29;20040;-76
2022/04/03 04:30:07;;;;;;;5.45;2.92;;;-0.50;99.90;;;;;;4910614;29;20454;-76
2022/04/03 04:32:33;;;;;;;6.45;2.95;;;-1.00;99.90;;;;;;4896764;29;20491;-76
2022/04/03 04:34:59;;;;;;;8.23;3.35;;;-1.00;99.90;;;;;;4911537;29;20087;-76
2022/04/03 04:37:25;;;;;;;5.50;2.97;;;-0.80;99.90;;;;;;4893852;29;20052;-76
2022/04/03 04:39:52;;;;;;;7.90;3.30;;;-1.00;99.90;;;;;;4893480;29;20523;-76
2022/04/03 04:42:19;;;;;;;8.90;3.70;;;-0.90;99.90;;;;;;4891288;29;20655;-76
2022/04/03 04:44:44;;;;;;;6.68;3.55;;;-0.40;99.90;;;;;;4893472;29;20499;-76
2022/04/03 04:47:10;;;;;;;8.85;3.88;;;-0.80;99.90;;;;;;4877446;29;20068;-75
2022/04/03 04:49:36;;;;;;;7.85;3.58;;;-0.80;99.90;;;;;;4877084;29;20143;-76
2022/04/03 04:52:03;;;;;;;6.55;3.45;;;-0.70;99.90;;;;;;4894068;29;20080;-76
2022/04/03 04:54:30;;;;;;;9.13;3.33;;;-0.70;99.90;;;;;;4886312;29;20056;-76
2022/04/03 04:56:56;;;;;;;7.00;3.25;;;-0.60;99.90;;;;;;4895615;29;20059;-76
2022/04/03 04:59:22;;;;;;;;;;;-0.60;99.90;;;;;;4912010;29;20103;-79
2022/04/03 05:01:48;;;;;;;5.60;3.10;;;-0.50;99.90;;;;;;4880538;29;19981;-78
2022/04/03 05:04:15;;;;;;;9.07;4.05;;;-0.50;99.90;;;;;;4910927;29;20508;-76
2022/04/03 05:06:42;;;;;;;7.38;3.55;;;-0.50;99.90;;;;;;4911878;29;20056;-76
2022/04/03 05:09:08;;;;;;;10.95;3.50;;;-0.50;99.90;;;;;;4895120;29;20127;-77
2022/04/03 05:11:36;;;;;;;5.72;3.30;;;-0.40;99.90;;;;;;4892898;29;20060;-76
2022/04/03 05:14:03;;;;;;;8.32;3.95;;;-0.40;99.90;;;;;;4860952;29;20052;-76
2022/04/03 05:16:29;;;;;;;8.60;3.67;;;-0.40;99.90;;;;;;4862266;29;20107;-76
2022/04/03 05:18:55;;;;;;;7.60;3.53;;;-0.30;99.90;;;;;;4893135;29;20044;-75
2022/04/03 05:21:22;;;;;;;7.25;3.47;;;-0.30;99.90;;;;;;4877326;29;20152;-76
2022/04/03 05:23:52;;;;;;;6.80;3.15;;;0.40;99.90;;;;;;4895923;29;20098;-76
2022/04/03 05:26:18;;;;;;;5.93;3.25;;;-0.30;99.90;;;;;;4911155;29;20064;-77
2022/04/03 05:28:44;;;;;;;7.82;3.80;;;-0.30;99.90;;;;;;4895039;29;20056;-76
2022/04/03 05:31:10;;;;;;;;;;;-0.30;99.90;;;;;;4911864;29;20059;-78
2022/04/03 05:33:36;;;;;;;6.00;3.08;;;-0.30;99.90;;;;;;4911922;29;19934;-75
2022/04/03 05:36:02;;;;;;;8.30;3.42;;;-0.30;99.90;;;;;;4895445;29;20094;-80
2022/04/03 05:38:28;;;;;;;;;;;-0.40;99.90;;;;;;4896421;29;20131;-76
2022/04/03 05:40:54;;;;;;;6.00;3.28;;;-0.40;99.90;;;;;;4911791;29;19927;-76
2022/04/03 05:43:19;;;;;;;6.32;3.85;;;0.50;99.90;;;;;;4902138;29;20623;-75
2022/04/03 05:45:45;;;;;;;6.97;3.47;;;-0.40;99.90;;;;;;4911818;29;20056;-76
2022/04/03 05:48:11;;;;;;;7.90;4.00;;;-0.40;99.90;;;;;;4895679;29;20047;-76
2022/04/03 05:50:39;;;;;;;9.15;3.80;;;0.10;99.90;;;;;;4892070;29;20052;-75
2022/04/03 05:53:06;;;;;;;7.90;4.05;;;-0.40;99.90;;;;;;4861574;29;20147;-76
2022/04/03 05:55:32;;;;;;;8.38;4.43;;;-0.40;99.90;;;;;;4892742;29;20067;-76
2022/04/03 05:57:58;;;;;;;10.70;3.97;;;-0.30;99.90;;;;;;4876100;29;20049;-76
2022/04/03 06:00:24;;;;;;;6.82;3.70;;;0.60;99.90;;;;;;4909868;29;20058;-77
2022/04/03 06:02:59;;;;;;;10.07;4.13;;;-0.20;99.90;;;;;;4910535;29;20048;-76
2022/04/03 06:05:31;;;;;;;7.82;3.53;;;-0.20;99.90;;;;;;4892724;29;20081;-75
2022/04/03 06:07:57;;;;;;;8.13;3.50;;;-0.20;99.90;;;;;;4907276;29;20059;-76
2022/04/03 06:10:23;;;;;;;;;;;0.70;99.90;;;;;;4911451;29;20059;-76
2022/04/03 06:12:59;;;;;;;6.60;3.55;;;-0.20;99.90;;;;;;4894544;29;19934;-76
2022/04/03 06:15:27;;;;;;;5.88;3.25;;;-0.20;99.90;;;;;;4914439;29;20063;-77
2022/04/03 06:17:53;;;;;;;7.95;3.70;;;-0.20;99.90;;;;;;4914938;29;20497;-76
2022/04/03 06:20:19;;;;;;;8.55;3.38;;;0.90;99.90;;;;;;4904529;29;20093;-75
2022/04/03 06:22:45;;;;;;;7.47;3.50;;;-0.10;99.90;;;;;;4895600;29;20052;-76
2022/04/03 06:25:12;;;;;;;8.48;3.80;;;0.20;99.90;;;;;;4879764;29;20140;-76
2022/04/03 06:27:38;;;;;;;7.50;3.70;;;-0.10;99.90;;;;;;4872884;29;20060;-75
2022/04/03 06:30:04;;;;;;;;;;;-0.10;99.90;;;;;;4895825;29;20052;-79
2022/04/03 06:32:30;;;;;;;8.85;3.92;;;-0.20;99.90;;;;;;4895781;29;19927;-75
2022/04/03 06:34:56;;;;;;;8.55;3.35;;;-0.20;99.90;;;;;;4879550;29;20053;-75
2022/04/03 06:37:22;;;;;;;6.75;3.60;;;-0.20;99.90;;;;;;4896579;29;20105;-77
2022/04/03 06:39:48;;;;;;;10.10;4.40;;;-0.10;99.90;;;;;;4898854;29;20147;-76
2022/04/03 06:42:14;;;;;;;9.43;4.82;;;-0.10;99.90;;;;;;4896831;29;20044;-76
2022/04/03 06:44:40;;;;;;;9.57;4.90;;;0.30;99.90;;;;;;4898736;29;20550;-75
2022/04/03 06:47:06;;;;;;;12.32;4.72;;;0.30;99.90;;;;;;4908647;29;20056;-80
2022/04/03 06:49:32;;;;;;;11.70;5.72;;;0.00;99.90;;;;;;4892971;29;20059;-75
2022/04/03 06:51:58;;;;;;;10.15;5.03;;;0.00;99.90;;;;;;4880147;29;20052;-76
2022/04/03 06:54:25;;;;;;;8.88;4.60;;;0.10;99.90;;;;;;4879122;29;20128;-76
2022/04/03 06:56:54;;;;;;;8.55;4.13;;;0.20;99.90;;;;;;4893723;29;20057;-78
2022/04/03 06:59:20;;;;;;;9.68;4.78;;;0.40;99.90;;;;;;4888300;29;20075;-76
2022/04/03 07:01:46;;;;;;;9.27;4.20;;;0.80;99.90;;;;;;4913996;29;20440;-75
2022/04/03 07:04:12;;;;;;;;;;;0.70;99.90;;;;;;4894459;29;20044;-76
2022/04/03 07:06:37;;;;;;;10.50;4.25;;;0.80;99.90;;;;;;4895087;29;20383;-77
2022/04/03 07:09:03;;;;;;;9.52;4.22;;;0.90;99.90;;;;;;4879485;29;20391;-76
2022/04/03 07:11:29;;;;;;;11.98;4.57;;;0.90;99.90;;;;;;4880891;29;20058;-76
2022/04/03 07:13:54;;;;;;;8.52;4.53;;;0.90;99.90;;;;;;4878787;29;20513;-76
2022/04/03 07:16:20;;;;;;;6.53;3.53;;;1.80;99.90;;;;;;4879019;29;20048;-76
2022/04/03 07:18:46;;;;;;;7.60;3.80;;;1.00;99.90;;;;;;4910603;29;20075;-76
2022/04/03 07:21:12;;;;;;;9.20;4.18;;;1.80;99.90;;;;;;4911580;29;20122;-76
2022/04/03 07:23:37;;;;;;;11.43;3.83;;;1.10;99.90;;;;;;4912863;29;20103;-76
2022/04/03 07:26:05;;;;;;;8.77;4.30;;;1.10;99.90;;;;;;4913239;29;20478;-76
2022/04/03 07:28:31;;;;;;;6.70;3.53;;;1.10;99.90;;;;;;4892385;29;20085;-76
2022/04/03 07:30:58;;;;;;;9.82;4.22;;;1.20;99.90;;;;;;4879339;29;20498;-75
2022/04/03 07:33:24;;;;;;;8.90;3.90;;;1.20;99.90;;;;;;4892196;29;20048;-76
2022/04/03 07:35:50;;;;;;;;;;;1.20;99.90;;;;;;4913405;29;20059;-73
2022/04/03 07:38:16;;;;;;;7.18;3.50;;;1.60;99.90;;;;;;4892765;29;20297;-77
2022/04/03 07:40:41;;;;;;;9.60;3.05;;;1.30;99.90;;;;;;4882089;29;20052;-78
2022/04/03 07:43:08;;;;;;;7.25;3.33;;;1.30;99.90;;;;;;4895926;29;20643;-82
2022/04/03 07:45:33;;;;;;;6.32;3.00;;;1.40;99.90;;;;;;4912936;29;20070;-76
2022/04/03 07:47:59;;;;;;;7.28;2.90;;;1.50;99.90;;;;;;4911533;29;20052;-76
2022/04/03 07:50:25;;;;;;;6.53;2.42;;;1.70;99.90;;;;;;4874245;29;20067;-77
2022/04/03 07:52:51;;;;;;;7.43;3.30;;;2.50;99.90;;;;;;4910361;29;20161;-77
2022/04/03 07:55:18;;;;;;;8.27;2.97;;;2.00;99.90;;;;;;4911885;29;20100;-77
2022/04/03 07:57:44;;;;;;;5.32;2.38;;;2.20;99.90;;;;;;4911398;29;20071;-76
2022/04/03 08:00:11;;;;;;;;;;;2.40;99.90;;;;;;4897288;29;20383;-79
2022/04/03 08:02:41;;;;;;;3.53;2.08;;;2.60;99.90;;;;;;4896932;29;19977;-76
2022/04/03 08:05:07;;;;;;;6.00;2.28;;;2.70;99.90;;;;;;4881183;29;20047;-76
2022/04/03 08:07:45;;;;;;;6.65;2.30;;;2.90;99.90;;;;;;4910822;29;20047;-77
2022/04/03 08:10:15;;;;;;;7.80;2.10;;;3.10;99.90;;;;;;4904967;29;20064;-79
2022/04/03 08:12:43;;;;;;;4.85;2.08;;;3.20;99.90;;;;;;4892643;29;20056;-77
2022/04/03 08:15:10;;;;;;;4.18;2.20;;;3.40;99.90;;;;;;4893785;29;20056;-79
2022/04/03 08:17:38;;;;;;;5.63;2.33;;;3.50;99.90;;;;;;4893747;29;20091;-76
2022/04/03 08:20:05;;;;;;;4.63;2.72;;;3.50;99.90;;;;;;4893489;29;20513;-76
2022/04/03 08:22:31;;;;;;;4.40;1.80;;;3.60;99.90;;;;;;4876851;29;20056;-76
2022/04/03 08:24:57;;;;;;;3.58;1.90;;;3.80;99.90;;;;;;4878243;29;20056;-76
2022/04/03 08:27:23;;;;;;;4.40;1.92;;;3.90;99.90;;;;;;4891744;29;20044;-77
2022/04/03 08:29:49;;;;;;;7.50;2.13;;;3.50;99.90;;;;;;4909744;29;20062;-77
2022/04/03 08:32:15;;;;;;;5.63;1.90;;;3.60;99.90;;;;;;4895920;29;20099;-77
2022/04/03 08:34:41;;;;;;;8.10;2.35;;;3.60;99.90;;;;;;4911660;29;20082;-77
2022/04/03 08:37:07;;;;;;;6.28;2.00;;;3.70;99.90;;;;;;4911496;29;20091;-79
2022/04/03 08:39:33;;;;;;;8.70;1.90;;;3.80;99.90;;;;;;4892375;29;20036;-76
2022/04/03 08:41:59;;;;;;;5.22;2.22;;;3.80;99.90;;;;;;4894779;29;20044;-77
2022/04/03 08:44:25;;;;;;;4.63;1.95;;;3.80;99.90;;;;;;4912174;29;20055;-77
2022/04/03 08:46:51;;;;;;;6.20;2.10;;;3.90;99.90;;;;;;4897142;29;20095;-77
2022/04/03 08:49:19;;;;;;;6.35;2.22;;;4.40;99.90;;;;;;4910378;29;20063;-77
2022/04/03 08:51:46;;;;;;;2.85;1.60;;;4.10;99.90;;;;;;4895443;29;20083;-79
2022/04/03 08:54:14;;;;;;;6.47;2.13;;;4.30;99.90;;;;;;4908205;29;20486;-81
2022/04/03 08:56:42;;;;;;;7.15;1.90;;;4.40;99.90;;;;;;4909943;29;20060;-79
2022/04/03 08:59:09;;;;;;;4.30;1.63;;;4.60;99.90;;;;;;4880472;29;20132;-74
2022/04/03 09:01:35;;;;;;;5.15;2.13;;;4.80;99.90;;;;;;4912489;29;20047;-71
2022/04/03 09:04:00;;;;;;;2.83;1.85;;;5.00;99.90;;;;;;4895803;29;20524;-73
2022/04/03 09:06:27;;;;;;;6.63;1.70;;;5.10;99.90;;;;;;4911549;29;20044;-76
2022/04/03 09:08:53;;;;;;;3.15;2.00;;;5.20;99.90;;;;;;4895773;29;20055;-78
2022/04/03 09:11:19;;;;;;;5.47;1.80;;;5.30;99.90;;;;;;4911530;29;20525;-78
2022/04/03 09:13:45;;;;;;;2.53;1.20;;;5.40;99.90;;;;;;4895154;29;20051;-77
2022/04/03 09:16:11;;;;;;;;;;;5.60;99.90;;;;;;4910120;29;20048;-76
2022/04/03 09:18:49;;;;;;;4.65;1.63;;;5.50;99.90;;;;;;4878999;29;20373;-76
2022/04/03 09:21:26;;;;;;;7.07;1.70;;;5.50;99.90;;;;;;4894573;29;20432;-82
2022/04/03 09:24:07;;;;;;;3.92;1.50;;;5.40;99.90;;;;;;4895469;29;20539;-76
2022/04/03 09:26:34;;;;;;;4.80;1.77;;;5.30;99.90;;;;;;4891688;29;20059;-76
2022/04/03 09:29:11;;;;;;;3.10;1.30;;;5.30;99.90;;;;;;4896287;29;20058;-77
2022/04/03 09:31:38;;;;;;;3.42;1.40;;;5.30;99.90;;;;;;4892855;29;20075;-76
2022/04/03 09:34:06;;;;;;;4.88;1.67;;;5.50;99.90;;;;;;4892313;29;20123;-78
2022/04/03 09:36:33;;;;;;;4.55;1.40;;;5.70;99.90;;;;;;4899286;29;20493;-76
2022/04/03 09:39:14;;;;;;;7.40;1.55;;;6.10;99.90;;;;;;4902864;29;20522;-77
2022/04/03 09:42:03;;;;;;;3.95;1.48;;;5.90;99.90;;;;;;4889951;29;20052;-77
2022/04/03 09:44:37;;;;;;;3.65;1.42;;;6.00;99.90;;;;;;4892035;29;20092;-80
2022/04/03 09:47:26;;;;;;;2.63;1.30;;;6.10;99.90;;;;;;4910826;29;20115;-77
2022/04/03 09:49:54;;;;;;;2.38;1.50;;;6.10;99.90;;;;;;4896825;29;20071;-77
2022/04/03 09:52:32;;;;;;;3.97;1.30;;;6.20;99.90;;;;;;4910757;29;20493;-76
2022/04/03 09:54:57;;;;;;;3.33;1.40;;;6.30;99.90;;;;;;4895626;29;20056;-76
2022/04/03 09:57:24;;;;;;;3.88;1.42;;;6.20;99.90;;;;;;4906971;29;20048;-77
2022/04/03 09:59:54;;;;;;;3.75;1.60;;;6.10;99.90;;;;;;4905746;29;20120;-76
2022/04/03 10:02:24;;;;;;;4.82;1.30;;;6.00;99.90;;;;;;4907854;29;20052;-77
2022/04/03 10:04:51;;;;;;;3.58;1.40;;;5.90;99.90;;;;;;4906560;29;20099;-76
2022/04/03 10:07:17;;;;;;;3.97;1.60;;;5.80;99.90;;;;;;4905168;29;20048;-81
2022/04/03 10:09:45;;;;;;;4.57;1.42;;;5.70;99.90;;;;;;4911841;29;20044;-76
2022/04/03 10:12:14;;;;;;;2.53;1.20;;;5.70;99.90;;;;;;4895773;29;20051;-76
2022/04/03 10:14:42;;;;;;;2.42;1.20;;;6.00;99.90;;;;;;4880440;29;20119;-76
2022/04/03 10:17:08;;;;;;;3.22;1.40;;;5.80;99.90;;;;;;4908652;29;20135;-77
2022/04/03 10:19:34;;;;;;;3.42;1.50;;;5.70;99.90;;;;;;4904865;29;20119;-76
2022/04/03 10:22:03;;;;;;;7.57;1.85;;;5.70;99.90;;;;;;4910872;29;20119;-76
2022/04/03 10:24:30;;;;;;;2.10;1.20;;;5.90;99.90;;;;;;4900538;29;20090;-76
2022/04/03 10:27:10;;;;;;;2.58;1.10;;;6.10;99.90;;;;;;4910606;29;20048;-76
2022/04/03 10:29:41;;;;;;;4.35;1.50;;;6.30;99.90;;;;;;4904838;29;20083;-78
2022/04/03 10:32:07;;;;;;;3.17;1.20;;;6.60;99.90;;;;;;4900972;29;20494;-76
2022/04/03 10:34:47;;;;;;;3.33;1.30;;;6.90;99.90;;;;;;4881983;29;20053;-76
2022/04/03 10:37:42;;;;;;;2.78;1.23;;;7.20;99.90;;;;;;4880710;29;20140;-76
2022/04/03 10:40:16;;;;;;;2.35;1.00;;;7.50;99.90;;;;;;4895905;29;20048;-77
2022/04/03 10:42:52;;;;;;;6.55;1.35;;;7.70;99.90;;;;;;4907797;29;20121;-76
2022/04/03 10:45:46;;;;;;;3.40;1.00;;;7.90;99.90;;;;;;4906108;29;20051;-77
2022/04/03 10:48:21;;;;;;;2.78;0.90;;;7.80;99.90;;;;;;4914131;29;20106;-78
2022/04/03 10:51:08;;;;;;;1.55;0.95;;;7.60;99.90;;;;;;4907706;29;20122;-76
2022/04/03 10:53:48;;;;;;;2.65;0.93;;;7.40;99.90;;;;;;4905271;29;20455;-79
2022/04/03 10:56:21;;;;;;;3.83;1.30;;;7.30;99.90;;;;;;4913894;29;20490;-75
2022/04/03 10:58:49;;;;;;;1.73;1.40;;;7.30;99.90;;;;;;4888512;29;20058;-77
2022/04/03 11:01:28;;;;;;;3.28;1.50;;;7.30;99.90;;;;;;4909196;29;20494;-76
2022/04/03 11:04:01;;;;;;;3.28;1.15;;;7.40;99.90;;;;;;4903063;29;20559;-76
2022/04/03 11:06:32;;;;;;;3.05;1.27;;;7.40;99.90;;;;;;4898529;29;20132;-78
2022/04/03 11:09:23;;;;;;;2.10;1.10;;;7.30;99.90;;;;;;4895218;29;20056;-77
2022/04/03 11:11:54;;;;;;;4.05;1.35;;;7.30;99.90;;;;;;4901923;29;20066;-80
2022/04/03 11:14:55;;;;;;;2.53;1.10;;;7.30;99.90;;;;;;4898969;29;20501;-77
2022/04/03 11:17:46;;;;;;;6.20;1.73;;;7.40;99.90;;;;;;4889000;29;20135;-76
2022/04/03 11:20:42;;;;;;;2.40;1.23;;;7.40;99.90;;;;;;4906442;29;20052;-76
2022/04/03 11:23:14;;;;;;;2.28;1.10;;;7.50;99.90;;;;;;4902322;29;20510;-77
2022/04/03 11:25:41;;;;;;;4.85;1.10;;;7.60;99.90;;;;;;4906727;29;20059;-76
2022/04/03 11:28:08;;;;;;;2.20;0.93;;;7.60;99.90;;;;;;4888564;29;20084;-78
2022/04/03 11:30:35;;;;;;;1.95;1.10;;;7.60;99.90;;;;;;4879975;29;20053;-77
2022/04/03 11:33:00;;;;;;;5.55;1.00;;;7.50;99.90;;;;;;4910909;29;20053;-77
2022/04/03 11:35:34;;;;;;;5.72;1.15;;;7.50;99.90;;;;;;4907336;29;20051;-77
2022/04/03 11:37:59;;;;;;;1.02;0.90;;;7.40;99.70;;;;;;4912970;29;20056;-75
2022/04/03 11:40:27;;;;;;;2.03;1.00;;;7.30;99.50;;;;;;4910094;29;20410;-82
2022/04/03 11:43:12;;;;;;;5.20;1.08;;;7.40;99.60;;;;;;4911498;29;20058;-78
2022/04/03 11:45:38;;;;;;;3.28;0.90;;;7.30;98.50;;;;;;4896272;29;20564;-78
2022/04/03 11:48:20;;;;;;;3.80;1.30;;;7.30;98.80;;;;;;4894195;29;20127;-77
2022/04/03 11:50:46;;;;;;;3.78;1.00;;;7.20;98.70;;;;;;4893882;29;20052;-77
2022/04/03 11:53:12;;;;;;;1.52;1.00;;;7.20;99.40;;;;;;4907541;29;20059;-77
2022/04/03 11:55:38;;;;;;;3.85;1.25;;;7.20;99.90;;;;;;4894105;29;20048;-76
2022/04/03 11:58:04;;;;;;;2.60;1.30;;;7.40;99.90;;;;;;4893307;29;20044;-76
2022/04/03 12:00:31;;;;;;;2.13;1.00;;;7.80;99.90;;;;;;4878575;29;20060;-76
2022/04/03 12:02:58;;;;;;;2.60;0.93;;;8.40;99.90;;;;;;4894360;29;20495;-76
2022/04/03 12:05:24;;;;;;;2.35;0.93;;;9.10;99.70;;;;;;4894208;29;20155;-77
2022/04/03 12:07:50;;;;;;;2.45;1.02;;;9.70;98.60;;;;;;4881723;29;20729;-77
2022/04/03 12:10:26;;;;;;;1.27;0.93;;;10.10;97.30;;;;;;4913091;29;20052;-77
2022/04/03 12:12:56;;;;;;;1.83;1.00;;;10.10;93.00;;;;;;4911414;29;20211;-77
2022/04/03 12:15:24;;;;;;;3.35;0.90;;;9.80;88.40;;;;;;4913290;29;20561;-76
2022/04/03 12:18:01;;;;;;;3.88;1.02;;;9.50;87.10;;;;;;4897425;29;20063;-76
2022/04/03 12:20:32;;;;;;;;;;;9.30;85.80;;;;;;4912973;29;20487;-81
2022/04/03 12:22:58;;;;;;;2.15;1.02;;;9.10;86.40;;;;;;4898267;29;19938;-76
2022/04/03 12:25:24;;;;;;;3.40;1.17;;;8.90;88.60;;;;;;4894294;29;20045;-76
2022/04/03 12:27:50;;;;;;;1.20;0.90;;;8.80;88.50;;;;;;4892270;29;20079;-77
2022/04/03 12:30:16;;;;;;;;;;;8.70;86.80;;;;;;4894539;29;20487;-77
2022/04/03 12:32:44;;;;;;;0.88;0.85;;;8.60;83.60;;;;;;4895129;29;19930;-77
2022/04/03 12:35:11;;;;;;;2.65;1.10;;;8.50;84.20;;;;;;4893627;29;20200;-76
2022/04/03 12:37:41;;;;;;;1.48;1.00;;;8.50;84.00;;;;;;4889787;29;20051;-77
2022/04/03 12:40:10;;;;;;;2.70;1.20;;;8.60;86.60;;;;;;4899768;29;20188;-79
2022/04/03 12:42:38;;;;;;;2.47;1.10;;;8.70;88.60;;;;;;4889777;29;20172;-76
2022/04/03 12:45:15;;;;;;;3.35;1.15;;;8.80;89.20;;;;;;4894050;29;20478;-76
2022/04/03 12:47:48;;;;;;;;;;;8.90;86.80;;;;;;4892707;29;20104;-76
2022/04/03 12:50:30;;;;;;;2.28;1.10;;;8.80;84.40;;;;;;4888635;29;19923;-76
2022/04/03 12:53:01;;;;;;;2.42;1.13;;;8.70;83.90;;;;;;4908971;29;20057;-77
2022/04/03 12:55:28;;;;;;;2.88;1.10;;;8.60;84.90;;;;;;4888657;29;20511;-77
2022/04/03 13:00:42;;;;;;;1.77;1.00;;;8.50;87.50;;;;;;4898210;29;20059;-77
2022/04/03 13:03:07;;;;;;;3.55;1.20;;;8.50;86.70;;;;;;4893584;29;20383;-76